createdAt,value
2022-12-09T00:02:09.006Z,32.30
2022-12-09T00:04:40.673Z,31.67
2022-12-09T00:07:20.974Z,32.47
2022-12-09T00:09:48.844Z,30.95
2022-12-09T00:12:19.444Z,31.88
2022-12-09T00:14:47.232Z,31.25
2022-12-09T00:17:15.544Z,32.38
2022-12-09T00:19:43.398Z,31.45
2022-12-09T00:22:19.005Z,30.55
2022-12-09T00:24:46.810Z,30.70
2022-12-09T00:27:20.131Z,29.88
2022-12-09T00:29:57.386Z,30.05
2022-12-09T00:32:29.032Z,31.77
2022-12-09T00:35:00.398Z,33.97
2022-12-09T00:40:51.588Z,32.38
2022-12-09T00:46:45.270Z,32.42
2022-12-09T00:52:52.616Z,30.00
2022-12-09T00:56:16.508Z,31.63
2022-12-09T00:59:45.804Z,31.42
2022-12-09T01:02:17.893Z,29.90
2022-12-09T01:04:58.059Z,31.33
2022-12-09T01:07:38.566Z,31.98
2022-12-09T01:10:50.200Z,32.25
2022-12-09T01:13:37.882Z,29.83
2022-12-09T01:19:50.290Z,30.55
2022-12-09T01:22:18.481Z,30.98
2022-12-09T01:24:46.702Z,30.17
2022-12-09T01:27:16.259Z,29.60
2022-12-09T01:29:43.834Z,29.67
2022-12-09T01:32:18.438Z,31.67
2022-12-09T01:34:46.354Z,30.92
2022-12-09T01:37:14.913Z,32.67
2022-12-09T01:39:43.446Z,30.85
2022-12-09T01:42:23.319Z,30.95
2022-12-09T01:45:40.324Z,31.50
2022-12-09T01:48:33.761Z,29.13
2022-12-09T01:51:19.034Z,29.55
2022-12-09T01:53:53.601Z,29.33
2022-12-09T01:56:34.996Z,30.50
2022-12-09T01:59:26.588Z,29.38
2022-12-09T02:06:46.810Z,28.33
2022-12-09T02:13:55.829Z,24.98
2022-12-09T02:16:32.485Z,22.10
2022-12-09T02:20:24.422Z,23.50
2022-12-09T02:27:29.333Z,22.55
2022-12-09T02:31:08.425Z,24.58
2022-12-09T02:36:53.896Z,22.85
2022-12-09T02:39:28.851Z,23.20
2022-12-09T02:42:07.798Z,24.20
2022-12-09T02:44:44.710Z,23.23
2022-12-09T02:47:24.707Z,21.95
2022-12-09T02:50:07.582Z,21.55
2022-12-09T02:52:47.860Z,22.05
2022-12-09T02:55:26.211Z,21.50
2022-12-09T02:58:17.867Z,22.73
2022-12-09T03:00:50.171Z,23.75
2022-12-09T03:03:22.130Z,24.95
2022-12-09T03:06:16.789Z,24.27
2022-12-09T03:09:18.676Z,24.85
2022-12-09T03:11:56.295Z,26.10
2022-12-09T03:14:59.582Z,24.27
2022-12-09T03:18:31.415Z,23.75
2022-12-09T03:28:35.786Z,26.42
2022-12-09T03:34:06.322Z,25.80
2022-12-09T03:36:39.733Z,25.75
2022-12-09T03:39:14.360Z,25.60
2022-12-09T03:41:58.588Z,24.15
2022-12-09T03:44:49.327Z,24.20
2022-12-09T03:47:19.844Z,23.40
2022-12-09T03:49:48.655Z,21.23
2022-12-09T03:52:28.159Z,19.55
2022-12-09T03:55:02.963Z,17.27
2022-12-09T03:57:41.559Z,15.05
2022-12-09T04:02:41.591Z,14.63
2022-12-09T04:05:12.301Z,15.93
2022-12-09T04:07:58.752Z,15.10
2022-12-09T04:11:09.240Z,14.88
2022-12-09T04:14:15.267Z,14.85
2022-12-09T04:16:56.182Z,14.30
2022-12-09T04:19:26.132Z,14.27
2022-12-09T04:21:54.347Z,14.13
2022-12-09T04:24:22.138Z,14.10
2022-12-09T04:26:50.179Z,14.48
2022-12-09T04:29:24.574Z,15.15
2022-12-09T04:34:26.478Z,14.40
2022-12-09T04:36:54.278Z,15.18
2022-12-09T04:39:22.172Z,14.57
2022-12-09T04:41:50.439Z,14.73
2022-12-09T04:44:18.103Z,15.88
2022-12-09T04:46:45.929Z,16.15
2022-12-09T04:49:13.602Z,16.05
2022-12-09T04:51:41.585Z,15.98
2022-12-09T04:54:13.805Z,17.25
2022-12-09T04:56:43.121Z,18.02
2022-12-09T04:59:11.828Z,20.00
2022-12-09T05:01:40.026Z,19.50
2022-12-09T05:04:08.166Z,19.08
2022-12-09T05:06:38.727Z,19.40
2022-12-09T05:09:10.156Z,19.02
2022-12-09T05:11:38.759Z,18.73
2022-12-09T05:14:06.677Z,18.00
2022-12-09T05:16:35.039Z,17.58
2022-12-09T05:19:03.217Z,18.63
2022-12-09T05:21:31.372Z,18.38
2022-12-09T05:24:00.259Z,18.73
2022-12-09T05:26:29.002Z,19.20
2022-12-09T05:29:00.146Z,17.75
2022-12-09T05:31:28.514Z,18.75
2022-12-09T05:33:56.976Z,19.85
2022-12-09T05:36:27.838Z,18.45
2022-12-09T05:38:58.524Z,17.33
2022-12-09T05:41:26.763Z,17.05
2022-12-09T05:43:55.027Z,18.50
2022-12-09T05:46:23.449Z,17.33
2022-12-09T05:48:54.170Z,18.08
2022-12-09T05:51:27.964Z,19.13
2022-12-09T05:53:56.868Z,18.23
2022-12-09T05:56:26.709Z,19.08
2022-12-09T05:58:55.636Z,18.95
2022-12-09T06:01:24.431Z,18.25
2022-12-09T06:03:54.204Z,18.13
2022-12-09T06:06:25.480Z,18.38
2022-12-09T06:08:57.157Z,17.73
2022-12-09T06:11:25.864Z,19.08
2022-12-09T06:13:57.586Z,18.92
2022-12-09T06:16:26.359Z,20.23
2022-12-09T06:18:54.711Z,20.25
2022-12-09T06:21:30.595Z,20.65
2022-12-09T06:24:06.280Z,20.17
2022-12-09T06:26:46.516Z,20.65
2022-12-09T06:29:41.957Z,21.95
2022-12-09T06:32:15.802Z,22.13
2022-12-09T06:34:47.174Z,22.48
2022-12-09T06:37:18.829Z,21.98
2022-12-09T06:39:47.908Z,22.92
2022-12-09T06:42:45.132Z,22.67
2022-12-09T06:45:14.599Z,21.58
2022-12-09T06:47:43.674Z,20.17
2022-12-09T06:50:12.520Z,20.85
2022-12-09T06:52:44.208Z,18.65
2022-12-09T06:55:48.827Z,18.13
2022-12-09T06:58:16.795Z,23.63
2022-12-09T07:00:44.513Z,23.10
2022-12-09T07:03:13.289Z,25.90
2022-12-09T07:05:41.538Z,24.77
2022-12-09T07:08:09.515Z,26.08
2022-12-09T07:10:37.774Z,23.67
2022-12-09T07:13:05.537Z,24.52
2022-12-09T07:15:33.383Z,23.75
2022-12-09T07:18:01.146Z,24.63
2022-12-09T07:20:29.146Z,23.88
2022-12-09T07:22:56.836Z,23.90
2022-12-09T07:25:24.492Z,23.67
2022-12-09T07:27:52.358Z,23.05
2022-12-09T07:30:20.195Z,23.80
2022-12-09T07:32:47.987Z,24.75
2022-12-09T07:35:16.169Z,22.50
2022-12-09T07:37:44.530Z,23.48
2022-12-09T07:40:12.403Z,22.63
2022-12-09T07:42:40.497Z,21.75
2022-12-09T07:45:11.334Z,23.90
2022-12-09T07:47:39.290Z,21.73
2022-12-09T07:50:16.049Z,22.23
2022-12-09T07:52:44.835Z,22.65
2022-12-09T07:55:14.498Z,21.40
2022-12-09T07:57:43.018Z,18.90
2022-12-09T08:00:11.475Z,20.50
2022-12-09T08:02:42.140Z,17.67
2022-12-09T08:05:12.355Z,17.90
2022-12-09T08:07:44.551Z,25.67
2022-12-09T08:10:13.059Z,23.45
2022-12-09T08:12:41.298Z,21.40
2022-12-09T08:15:12.941Z,19.02
2022-12-09T08:17:41.283Z,20.08
2022-12-09T08:20:09.916Z,18.15
2022-12-09T08:22:38.344Z,16.48
2022-12-09T08:25:06.911Z,16.58
2022-12-09T08:27:35.204Z,16.75
2022-12-09T08:30:05.719Z,16.13
2022-12-09T08:32:34.196Z,17.08
2022-12-09T08:35:03.222Z,18.10
2022-12-09T08:37:31.604Z,17.85
2022-12-09T08:39:59.569Z,20.17
2022-12-09T08:42:30.556Z,20.73
2022-12-09T08:45:02.052Z,21.42
2022-12-09T08:47:38.114Z,20.00
2022-12-09T08:50:09.800Z,21.85
2022-12-09T08:52:40.724Z,19.10
2022-12-09T08:55:10.090Z,18.40
2022-12-09T09:01:18.016Z,17.92
2022-12-09T09:03:47.029Z,15.63
2022-12-09T09:06:17.272Z,14.18
2022-12-09T09:08:45.923Z,13.82
2022-12-09T09:11:17.085Z,13.55
2022-12-09T09:13:46.855Z,13.23
2022-12-09T09:16:20.090Z,13.00
2022-12-09T09:19:25.755Z,11.27
2022-12-09T09:21:54.769Z,11.65
2022-12-09T09:24:25.228Z,10.75
2022-12-09T09:29:56.888Z,9.93
2022-12-09T09:32:38.013Z,10.80
2022-12-09T09:35:07.200Z,10.88
2022-12-09T09:37:44.589Z,10.50
2022-12-09T09:40:16.101Z,10.25
2022-12-09T09:42:49.870Z,8.55
2022-12-09T09:45:21.395Z,10.45
2022-12-09T09:48:13.338Z,11.15
2022-12-09T09:50:57.172Z,13.00
2022-12-09T09:53:28.237Z,11.93
2022-12-09T09:56:06.449Z,12.15
2022-12-09T09:58:43.518Z,12.90
2022-12-09T10:01:19.873Z,12.35
2022-12-09T10:03:48.207Z,12.60
2022-12-09T10:06:22.812Z,11.98
2022-12-09T10:09:11.406Z,11.07
2022-12-09T10:11:58.643Z,11.32
2022-12-09T10:15:02.813Z,11.07
2022-12-09T10:17:47.986Z,11.07
2022-12-09T10:20:28.058Z,10.52
2022-12-09T10:35:02.783Z,10.35
2022-12-09T10:37:39.683Z,9.73
2022-12-09T10:54:00.026Z,11.85
2022-12-09T10:56:34.101Z,11.63
2022-12-09T10:59:47.552Z,12.73
2022-12-09T11:02:21.171Z,11.38
2022-12-09T11:04:56.068Z,13.30
2022-12-09T11:12:03.216Z,13.13
2022-12-09T11:15:18.565Z,13.07
2022-12-09T11:18:15.029Z,12.10
2022-12-09T11:20:56.354Z,13.55
2022-12-09T11:24:03.451Z,11.82
2022-12-09T11:26:35.998Z,10.52
2022-12-09T11:29:16.451Z,8.05
2022-12-09T11:31:51.449Z,9.25
2022-12-09T11:34:27.596Z,8.98
2022-12-09T11:36:58.200Z,9.90
2022-12-09T11:39:30.535Z,9.38
2022-12-09T11:45:07.273Z,10.00
2022-12-09T11:50:56.364Z,9.77
2022-12-09T11:53:27.637Z,10.85
2022-12-09T11:56:01.021Z,11.05
2022-12-09T11:58:38.516Z,12.88
2022-12-09T12:01:16.023Z,14.60
2022-12-09T12:04:04.238Z,13.15
2022-12-09T12:07:25.108Z,11.02
2022-12-09T12:13:42.946Z,10.95
2022-12-09T12:16:45.590Z,12.00
2022-12-09T12:19:33.466Z,12.15
2022-12-09T12:23:04.783Z,10.63
2022-12-09T12:25:35.755Z,10.88
2022-12-09T12:28:14.514Z,10.50
2022-12-09T12:31:08.469Z,10.57
2022-12-09T12:40:44.113Z,9.18
2022-12-09T12:44:06.874Z,8.73
2022-12-09T12:47:03.307Z,8.48
2022-12-09T12:50:08.826Z,8.20
2022-12-09T12:52:56.871Z,6.55
2022-12-09T12:55:50.828Z,6.72
2022-12-09T13:01:54.146Z,7.45
2022-12-09T13:04:48.609Z,7.53
2022-12-09T13:08:02.489Z,7.53
2022-12-09T13:11:08.519Z,7.28
2022-12-09T13:17:22.872Z,6.93
2022-12-09T13:20:30.905Z,7.47
2022-12-09T13:23:35.210Z,7.32
2022-12-09T13:33:01.522Z,7.32
2022-12-09T13:38:39.892Z,8.68
2022-12-09T13:41:26.826Z,8.85
2022-12-09T13:44:05.995Z,8.70
2022-12-09T13:46:36.536Z,8.65
2022-12-09T13:53:20.655Z,8.63
2022-12-09T13:56:04.109Z,9.35
2022-12-09T13:58:50.211Z,9.57
2022-12-09T14:01:42.155Z,9.45
2022-12-09T14:04:18.712Z,9.70
2022-12-09T14:06:46.395Z,9.68
2022-12-09T14:09:47.611Z,9.65
2022-12-09T14:12:27.440Z,9.70
2022-12-09T14:15:01.636Z,8.38
2022-12-09T14:17:29.489Z,9.27
2022-12-09T14:28:40.793Z,9.20
2022-12-09T14:31:09.296Z,9.13
2022-12-09T14:33:46.860Z,10.75
2022-12-09T14:36:14.425Z,9.88
2022-12-09T14:39:26.617Z,8.55
2022-12-09T14:42:36.711Z,10.63
2022-12-09T14:45:27.214Z,10.00
2022-12-09T14:47:59.375Z,8.85
2022-12-09T14:50:31.497Z,9.82
2022-12-09T14:53:02.831Z,10.48
2022-12-09T14:55:36.965Z,9.70
2022-12-09T14:58:05.244Z,10.68
2022-12-09T15:00:36.115Z,10.73
2022-12-09T15:03:39.410Z,11.70
2022-12-09T15:06:13.316Z,11.50
2022-12-09T15:08:42.112Z,10.93
2022-12-09T15:11:22.674Z,11.80
2022-12-09T15:13:53.996Z,12.23
2022-12-09T15:16:26.252Z,12.05
2022-12-09T15:19:59.614Z,12.77
2022-12-09T15:22:58.418Z,11.18
2022-12-09T15:25:27.276Z,11.48
2022-12-09T15:28:02.883Z,11.90
2022-12-09T15:30:36.417Z,11.95
2022-12-09T15:33:22.101Z,13.15
2022-12-09T15:36:13.508Z,12.38
2022-12-09T15:38:46.385Z,12.85
2022-12-09T15:41:34.754Z,13.85
2022-12-09T15:44:07.114Z,13.50
2022-12-09T15:46:39.260Z,11.70
2022-12-09T15:49:09.394Z,10.60
2022-12-09T15:51:40.152Z,12.13
2022-12-09T15:54:11.991Z,10.80
2022-12-09T15:56:48.174Z,11.55
2022-12-09T15:59:39.980Z,11.10
2022-12-09T16:02:11.677Z,11.68
2022-12-09T16:04:44.122Z,11.18
2022-12-09T16:07:14.432Z,9.63
2022-12-09T16:10:02.070Z,9.13
2022-12-09T16:12:32.634Z,10.77
2022-12-09T16:15:00.719Z,9.55
2022-12-09T16:17:32.739Z,8.07
2022-12-09T16:20:21.714Z,8.25
2022-12-09T16:22:53.140Z,9.05
2022-12-09T16:25:26.764Z,8.80
2022-12-09T16:28:06.285Z,8.52
2022-12-09T16:30:45.874Z,8.07
2022-12-09T16:33:19.020Z,7.43
2022-12-09T16:36:04.996Z,8.40
2022-12-09T16:38:39.590Z,8.18
2022-12-09T16:41:10.769Z,8.88
2022-12-09T16:49:39.590Z,8.00
2022-12-09T16:52:13.917Z,7.32
2022-12-09T16:54:44.244Z,7.82
2022-12-09T16:57:18.709Z,6.95
2022-12-09T17:02:28.566Z,6.28
2022-12-09T17:09:12.050Z,5.97
2022-12-09T17:14:50.400Z,6.93
2022-12-09T17:17:54.785Z,6.72
2022-12-09T17:20:44.326Z,6.60
2022-12-09T17:23:30.075Z,7.63
2022-12-09T17:26:19.370Z,7.88
2022-12-09T17:29:03.277Z,9.38
2022-12-09T17:35:41.881Z,8.70
2022-12-09T17:38:16.821Z,9.43
2022-12-09T17:44:27.834Z,9.43
2022-12-09T17:46:58.321Z,10.00
2022-12-09T17:49:28.967Z,10.48
2022-12-09T17:51:57.617Z,10.27
2022-12-09T17:54:27.614Z,8.88
2022-12-09T17:59:59.981Z,9.40
2022-12-09T18:02:27.988Z,9.82
2022-12-09T18:04:56.118Z,8.90
2022-12-09T18:07:25.315Z,10.10
2022-12-09T18:09:56.905Z,8.35
2022-12-09T18:12:51.838Z,9.48
2022-12-09T18:18:09.292Z,9.60
2022-12-09T18:20:39.444Z,10.05
2022-12-09T18:23:14.511Z,10.88
2022-12-09T18:25:49.624Z,12.20
2022-12-09T18:28:21.992Z,13.90
2022-12-09T18:31:19.366Z,9.65
2022-12-09T18:33:49.231Z,9.98
2022-12-09T18:36:28.893Z,9.02
2022-12-09T18:38:59.445Z,11.05
2022-12-09T18:41:29.586Z,11.95
2022-12-09T18:44:21.707Z,12.00
2022-12-09T18:47:01.167Z,13.10
2022-12-09T18:49:30.350Z,11.98
2022-12-09T18:52:03.607Z,12.52
2022-12-09T18:54:32.898Z,11.63
2022-12-09T18:58:17.774Z,11.82
2022-12-09T19:00:55.015Z,15.90
2022-12-09T19:06:36.859Z,8.15
2022-12-09T19:09:36.713Z,8.02
2022-12-09T19:12:38.253Z,9.27
2022-12-09T19:15:02.665Z,9.45
2022-12-09T19:21:33.994Z,8.43
2022-12-09T19:24:05.613Z,8.18
2022-12-09T19:29:51.044Z,8.27
2022-12-09T19:32:51.585Z,8.70
2022-12-09T19:35:15.970Z,7.95
2022-12-09T19:42:26.465Z,7.75
2022-12-09T19:53:26.202Z,9.15
2022-12-09T19:56:08.806Z,8.32
2022-12-09T19:58:42.066Z,8.70
2022-12-09T20:01:39.593Z,10.35
2022-12-09T20:08:32.941Z,13.95
2022-12-09T20:13:56.882Z,14.75
2022-12-09T20:16:25.632Z,13.48
2022-12-09T20:18:59.031Z,11.25
2022-12-09T20:21:28.882Z,10.48
2022-12-09T20:24:07.297Z,8.90
2022-12-09T20:26:36.911Z,6.63
2022-12-09T20:29:12.062Z,8.00
2022-12-09T20:31:43.076Z,7.32
2022-12-09T20:34:19.903Z,7.70
2022-12-09T20:36:48.641Z,7.45
2022-12-09T20:39:23.705Z,7.63
2022-12-09T20:41:51.339Z,7.63
2022-12-09T20:47:30.565Z,7.88
2022-12-09T20:49:58.159Z,8.38
2022-12-09T20:52:25.727Z,8.95
2022-12-09T20:54:53.370Z,8.65
2022-12-09T20:57:20.932Z,8.75
2022-12-09T20:59:48.647Z,10.05
2022-12-09T21:02:17.876Z,9.93
2022-12-09T21:04:46.634Z,9.70
2022-12-09T21:07:14.216Z,9.35
2022-12-09T21:09:41.735Z,9.93
2022-12-09T21:12:09.226Z,8.75
2022-12-09T21:14:37.193Z,9.82
2022-12-09T21:17:11.526Z,10.80
2022-12-09T21:19:41.611Z,11.40
2022-12-09T21:22:09.351Z,12.30
2022-12-09T21:24:37.002Z,12.25
2022-12-09T21:27:04.636Z,15.98
2022-12-09T21:29:32.637Z,12.68
2022-12-09T21:32:01.468Z,10.95
2022-12-09T21:34:29.816Z,10.63
2022-12-09T21:36:57.680Z,9.75
2022-12-09T21:39:25.778Z,9.63
2022-12-09T21:41:55.607Z,9.57
2022-12-09T21:44:25.449Z,10.25
2022-12-09T21:46:53.833Z,10.65
2022-12-09T21:49:21.913Z,9.85
2022-12-09T21:51:49.750Z,9.43
2022-12-09T21:54:17.509Z,9.90
2022-12-09T21:56:45.064Z,11.02
2022-12-09T21:59:12.910Z,10.80
2022-12-09T22:01:42.220Z,9.80
2022-12-09T22:04:13.521Z,10.20
2022-12-09T22:06:44.523Z,9.35
2022-12-09T22:09:12.248Z,9.75
2022-12-09T22:11:40.708Z,11.35
2022-12-09T22:14:10.530Z,10.52
2022-12-09T22:16:41.429Z,11.13
2022-12-09T22:19:15.750Z,11.77
2022-12-09T22:21:43.538Z,10.88
2022-12-09T22:24:13.118Z,11.30
2022-12-09T22:26:43.618Z,10.35
2022-12-09T22:29:13.874Z,10.32
2022-12-09T22:31:42.169Z,10.23
2022-12-09T22:34:16.179Z,11.52
2022-12-09T22:36:43.952Z,10.23
2022-12-09T22:39:21.745Z,11.05
2022-12-09T22:41:52.227Z,10.63
2022-12-09T22:44:28.446Z,11.25
2022-12-09T22:46:56.104Z,11.63
2022-12-09T22:49:23.874Z,11.80
2022-12-09T22:51:55.132Z,11.48
2022-12-09T22:54:26.351Z,13.02
2022-12-09T22:56:53.890Z,11.73
2022-12-09T23:00:44.942Z,14.05
2022-12-09T23:03:28.048Z,14.18
2022-12-09T23:06:04.848Z,12.68
2022-12-09T23:09:01.290Z,13.85
2022-12-09T23:11:29.262Z,14.40
2022-12-09T23:13:59.673Z,15.43
2022-12-09T23:16:28.464Z,15.45
2022-12-09T23:18:58.963Z,15.90
2022-12-09T23:21:30.269Z,16.38
2022-12-09T23:24:00.303Z,16.42
2022-12-09T23:27:10.276Z,16.33
2022-12-09T23:30:00.918Z,15.65
2022-12-09T23:32:28.472Z,16.17
2022-12-09T23:35:07.088Z,17.08
2022-12-09T23:37:35.579Z,14.35
2022-12-09T23:40:03.545Z,14.73
2022-12-09T23:42:31.137Z,14.05
2022-12-09T23:44:58.765Z,14.68
2022-12-09T23:47:26.374Z,14.95
2022-12-09T23:50:01.246Z,14.85
2022-12-09T23:52:59.770Z,15.65
2022-12-09T23:55:28.413Z,14.55
2022-12-09T23:57:58.072Z,14.73
